Shorkot Weather



Shorkot's Current Weather

Temprature 21.61o clear sky

clear sky

Rain: 0 %

Min Temprature21.61o
Max Temprature21.61o
Humidity22
Wind Speed2.48 m/h
Sun Rise06:29:41
Sun Set17:30:36
Current Time: 28-Oct-2020 07:37:10
Lat/Lon: 31.91, 70.88




Shorkot's Geo Location



Shorkot's Weather Forecast

Time Overall Temp Min Temp Max Temp Humidity Wind Speed Rain
28-Oct-2020 (Wed)
08:00:00 clear sky 20.020 20.020 21.610 24 2.48 m/h 0 %
11:00:00 clear sky 26.400 26.400 28.580 16 2.8 m/h 0 %
14:00:00 clear sky 30.890 30.890 31.740 12 2.97 m/h 0 %
17:00:00 clear sky 27.800 27.800 27.870 15 2.23 m/h 0 %
20:00:00 clear sky 21.150 21.150 21.150 22 1.71 m/h 0 %
23:00:00 clear sky 19.600 19.600 19.600 25 1.38 m/h 0 %
29-Oct-2020 (Thu)
02:00:00 clear sky 19.340 19.340 19.340 25 2.16 m/h 0 %
05:00:00 clear sky 17.440 17.440 17.440 28 1.96 m/h 0 %
08:00:00 clear sky 21.300 21.300 21.300 22 2.04 m/h 0 %
11:00:00 clear sky 28.430 28.430 28.430 14 1.62 m/h 0 %
14:00:00 clear sky 31.740 31.740 31.740 12 2.81 m/h 0 %
17:00:00 clear sky 27.690 27.690 27.690 15 2.23 m/h 0 %
20:00:00 clear sky 21.050 21.050 21.050 22 1.61 m/h 0 %
23:00:00 clear sky 19.760 19.760 19.760 25 1.17 m/h 0 %
30-Oct-2020 (Fri)
02:00:00 clear sky 20.680 20.680 20.680 23 2.8 m/h 0 %
05:00:00 clear sky 19.070 19.070 19.070 26 2.23 m/h 0 %
08:00:00 clear sky 23.860 23.860 23.860 19 0.15 m/h 0 %
11:00:00 clear sky 30.120 30.120 30.120 13 1.03 m/h 0 %
14:00:00 clear sky 32.190 32.190 32.190 11 1.37 m/h 0 %
17:00:00 clear sky 27.480 27.480 27.480 15 1.73 m/h 0 %
20:00:00 clear sky 22.250 22.250 22.250 20 2.49 m/h 0 %
23:00:00 clear sky 18.340 18.340 18.340 25 0.64 m/h 0 %
31-Oct-2020 (Sat)
02:00:00 clear sky 18.340 18.340 18.340 25 1.52 m/h 0 %
05:00:00 clear sky 17.420 17.420 17.420 27 1.43 m/h 0 %
08:00:00 clear sky 24.010 24.010 24.010 18 1.61 m/h 0 %
11:00:00 clear sky 30.570 30.570 30.570 12 1.54 m/h 0 %
14:00:00 clear sky 32.710 32.710 32.710 11 0.91 m/h 0 %
17:00:00 clear sky 25.890 25.890 25.890 16 0.36 m/h 0 %
20:00:00 clear sky 20.850 20.850 20.850 22 0.79 m/h 0 %
23:00:00 clear sky 18.730 18.730 18.730 25 1.19 m/h 0 %
01-Nov-2020 (Sun)
02:00:00 clear sky 17.350 17.350 17.350 27 0.86 m/h 0 %
05:00:00 clear sky 17.000 17.000 17.000 28 1.54 m/h 0 %
08:00:00 clear sky 23.500 23.500 23.500 18 1.34 m/h 0 %
11:00:00 clear sky 30.600 30.600 30.600 11 2.34 m/h 0 %
14:00:00 clear sky 32.760 32.760 32.760 9 1.89 m/h 0 %
17:00:00 clear sky 26.180 26.180 26.180 14 1.55 m/h 0 %
20:00:00 clear sky 20.040 20.040 20.040 20 1.4 m/h 0 %
23:00:00 clear sky 20.510 20.510 20.510 19 2.31 m/h 0 %
02-Nov-2020 (Mon)
02:00:00 clear sky 18.700 18.700 18.700 21 1.86 m/h 0 %
05:00:00 clear sky 18.970 18.970 18.970 20 2.68 m/h 0 %

Famous Cities (60)